sensor_id;sensor_type;location;lat;lon;timestamp;pressure;altitude;pressure_sealevel;temperature;humidity
17072;BME280;7731;50.720;6.912;2023-04-07T00:00:50;99854.38;;;7.47;100.00
17072;BME280;7731;50.720;6.912;2023-04-07T00:03:20;99863.69;;;7.68;100.00
17072;BME280;7731;50.720;6.912;2023-04-07T00:05:51;99857.84;;;7.66;100.00
17072;BME280;7731;50.720;6.912;2023-04-07T00:08:21;99857.16;;;7.61;100.00
17072;BME280;7731;50.720;6.912;2023-04-07T00:10:54;99857.41;;;7.96;100.00
17072;BME280;7731;50.720;6.912;2023-04-07T00:13:24;99857.06;;;7.85;100.00
17072;BME280;7731;50.720;6.912;2023-04-07T00:15:57;99863.97;;;7.62;100.00
17072;BME280;7731;50.720;6.912;2023-04-07T00:18:27;99863.69;;;7.68;100.00
17072;BME280;7731;50.720;6.912;2023-04-07T00:20:57;99864.84;;;7.82;100.00
17072;BME280;7731;50.720;6.912;2023-04-07T00:23:27;99866.09;;;7.92;100.00
17072;BME280;7731;50.720;6.912;2023-04-07T00:26:00;99865.34;;;7.90;100.00
17072;BME280;7731;50.720;6.912;2023-04-07T00:28:31;99868.22;;;7.82;100.00
17072;BME280;7731;50.720;6.912;2023-04-07T00:31:01;99864.47;;;7.91;100.00
17072;BME280;7731;50.720;6.912;2023-04-07T00:33:31;99860.25;;;8.09;100.00
17072;BME280;7731;50.720;6.912;2023-04-07T00:36:02;99858.41;;;8.13;100.00
17072;BME280;7731;50.720;6.912;2023-04-07T00:38:32;99846.78;;;8.05;100.00
17072;BME280;7731;50.720;6.912;2023-04-07T00:41:05;99853.66;;;7.84;100.00
17072;BME280;7731;50.720;6.912;2023-04-07T00:43:37;99845.81;;;7.68;100.00
17072;BME280;7731;50.720;6.912;2023-04-07T00:46:13;99848.97;;;7.74;100.00
17072;BME280;7731;50.720;6.912;2023-04-07T00:48:44;99843.94;;;7.93;100.00
17072;BME280;7731;50.720;6.912;2023-04-07T00:51:15;99845.44;;;7.97;100.00
17072;BME280;7731;50.720;6.912;2023-04-07T00:53:45;99846.31;;;7.77;100.00
17072;BME280;7731;50.720;6.912;2023-04-07T00:56:18;99844.84;;;7.71;100.00
17072;BME280;7731;50.720;6.912;2023-04-07T00:58:51;99839.34;;;7.60;100.00
17072;BME280;7731;50.720;6.912;2023-04-07T01:01:26;99843.13;;;7.51;100.00
17072;BME280;7731;50.720;6.912;2023-04-07T01:04:06;99847.28;;;7.54;100.00
17072;BME280;7731;50.720;6.912;2023-04-07T01:06:43;99834.25;;;7.99;100.00
17072;BME280;7731;50.720;6.912;2023-04-07T01:09:22;99845.03;;;7.87;100.00
17072;BME280;7731;50.720;6.912;2023-04-07T01:12:04;99834.16;;;7.82;100.00
17072;BME280;7731;50.720;6.912;2023-04-07T01:14:46;99828.53;;;7.94;100.00
17072;BME280;7731;50.720;6.912;2023-04-07T01:17:22;99830.63;;;8.24;100.00
17072;BME280;7731;50.720;6.912;2023-04-07T01:20:01;99833.09;;;8.07;100.00
17072;BME280;7731;50.720;6.912;2023-04-07T01:22:42;99827.34;;;8.01;100.00
17072;BME280;7731;50.720;6.912;2023-04-07T01:25:26;99825.78;;;8.18;100.00
17072;BME280;7731;50.720;6.912;2023-04-07T01:28:40;99832.56;;;8.19;100.00
17072;BME280;7731;50.720;6.912;2023-04-07T01:31:16;99823.69;;;8.07;100.00
17072;BME280;7731;50.720;6.912;2023-04-07T01:33:50;99828.81;;;8.07;100.00
17072;BME280;7731;50.720;6.912;2023-04-07T01:36:23;99825.75;;;7.99;100.00
17072;BME280;7731;50.720;6.912;2023-04-07T01:38:59;99834.66;;;7.90;100.00
17072;BME280;7731;50.720;6.912;2023-04-07T01:41:30;99831.22;;;7.91;100.00
17072;BME280;7731;50.720;6.912;2023-04-07T01:44:01;99831.53;;;7.83;100.00
17072;BME280;7731;50.720;6.912;2023-04-07T01:46:35;99836.53;;;7.86;100.00
17072;BME280;7731;50.720;6.912;2023-04-07T01:49:07;99844.91;;;7.69;100.00
17072;BME280;7731;50.720;6.912;2023-04-07T01:51:39;99844.72;;;7.74;100.00
17072;BME280;7731;50.720;6.912;2023-04-07T01:54:09;99848.34;;;7.68;100.00
17072;BME280;7731;50.720;6.912;2023-04-07T01:56:41;99842.28;;;7.71;100.00
17072;BME280;7731;50.720;6.912;2023-04-07T01:59:12;99858.06;;;7.81;100.00
17072;BME280;7731;50.720;6.912;2023-04-07T02:01:44;99850.91;;;7.68;100.00
17072;BME280;7731;50.720;6.912;2023-04-07T02:04:22;99848.56;;;7.64;100.00
17072;BME280;7731;50.720;6.912;2023-04-07T02:07:02;99858.03;;;7.62;100.00
17072;BME280;7731;50.720;6.912;2023-04-07T02:09:37;99849.72;;;7.77;100.00
17072;BME280;7731;50.720;6.912;2023-04-07T02:12:12;99848.09;;;7.75;100.00
17072;BME280;7731;50.720;6.912;2023-04-07T02:14:43;99837.50;;;7.63;100.00
17072;BME280;7731;50.720;6.912;2023-04-07T02:17:18;99846.69;;;7.67;100.00
17072;BME280;7731;50.720;6.912;2023-04-07T02:19:50;99852.00;;;7.83;100.00
17072;BME280;7731;50.720;6.912;2023-04-07T02:22:21;99849.50;;;7.82;100.00
17072;BME280;7731;50.720;6.912;2023-04-07T02:24:52;99856.53;;;7.77;100.00
17072;BME280;7731;50.720;6.912;2023-04-07T02:27:22;99850.78;;;7.72;100.00
17072;BME280;7731;50.720;6.912;2023-04-07T02:29:52;99856.53;;;7.77;100.00
17072;BME280;7731;50.720;6.912;2023-04-07T02:32:25;99860.81;;;7.76;100.00
17072;BME280;7731;50.720;6.912;2023-04-07T02:34:56;99852.59;;;7.69;100.00
17072;BME280;7731;50.720;6.912;2023-04-07T02:37:26;99851.69;;;7.71;100.00
17072;BME280;7731;50.720;6.912;2023-04-07T02:39:56;99857.13;;;7.83;100.00
17072;BME280;7731;50.720;6.912;2023-04-07T02:42:27;99857.00;;;7.86;100.00
17072;BME280;7731;50.720;6.912;2023-04-07T02:44:58;99852.47;;;7.73;100.00
17072;BME280;7731;50.720;6.912;2023-04-07T02:47:31;99853.78;;;7.81;100.00
17072;BME280;7731;50.720;6.912;2023-04-07T02:50:01;99859.63;;;7.85;100.00
17072;BME280;7731;50.720;6.912;2023-04-07T02:52:32;99860.88;;;7.75;100.00
17072;BME280;7731;50.720;6.912;2023-04-07T02:55:08;99859.78;;;8.01;100.00
17072;BME280;7731;50.720;6.912;2023-04-07T02:57:40;99863.94;;;7.83;100.00
17072;BME280;7731;50.720;6.912;2023-04-07T03:00:13;99854.63;;;7.82;100.00
17072;BME280;7731;50.720;6.912;2023-04-07T03:02:46;99858.59;;;7.68;100.00
17072;BME280;7731;50.720;6.912;2023-04-07T03:05:16;99861.97;;;7.69;100.00
17072;BME280;7731;50.720;6.912;2023-04-07T03:07:49;99862.28;;;7.61;100.00
17072;BME280;7731;50.720;6.912;2023-04-07T03:10:19;99867.28;;;7.64;100.00
17072;BME280;7731;50.720;6.912;2023-04-07T03:12:49;99866.13;;;7.72;100.00
17072;BME280;7731;50.720;6.912;2023-04-07T03:15:20;99861.34;;;7.64;100.00
17072;BME280;7731;50.720;6.912;2023-04-07T03:17:52;99857.16;;;7.61;100.00
17072;BME280;7731;50.720;6.912;2023-04-07T03:20:23;99861.09;;;7.70;100.00
17072;BME280;7731;50.720;6.912;2023-04-07T03:22:53;99862.22;;;7.63;100.00
17072;BME280;7731;50.720;6.912;2023-04-07T03:25:25;99857.16;;;7.61;100.00
17072;BME280;7731;50.720;6.912;2023-04-07T03:27:55;99857.56;;;7.52;100.00
17072;BME280;7731;50.720;6.912;2023-04-07T03:30:25;99862.16;;;7.64;100.00
17072;BME280;7731;50.720;6.912;2023-04-07T03:32:59;99858.78;;;7.64;100.00
17072;BME280;7731;50.720;6.912;2023-04-07T03:35:29;99847.16;;;7.77;100.00
17072;BME280;7731;50.720;6.912;2023-04-07T03:37:59;99853.34;;;7.72;100.00
17072;BME280;7731;50.720;6.912;2023-04-07T03:40:30;99859.66;;;7.63;100.00
17072;BME280;7731;50.720;6.912;2023-04-07T03:43:01;99857.44;;;7.76;100.00
17072;BME280;7731;50.720;6.912;2023-04-07T03:45:33;99855.53;;;7.60;100.00
17072;BME280;7731;50.720;6.912;2023-04-07T03:48:06;99849.66;;;7.79;100.00
17072;BME280;7731;50.720;6.912;2023-04-07T03:50:39;99857.50;;;7.74;100.00
17072;BME280;7731;50.720;6.912;2023-04-07T03:53:09;99857.31;;;7.58;100.00
17072;BME280;7731;50.720;6.912;2023-04-07T03:55:41;99858.47;;;7.51;100.00
17072;BME280;7731;50.720;6.912;2023-04-07T03:58:11;99864.34;;;7.53;100.00
17072;BME280;7731;50.720;6.912;2023-04-07T04:00:43;99856.03;;;7.48;100.00
17072;BME280;7731;50.720;6.912;2023-04-07T04:03:16;99864.34;;;7.53;100.00
17072;BME280;7731;50.720;6.912;2023-04-07T04:05:47;99866.56;;;7.61;100.00
17072;BME280;7731;50.720;6.912;2023-04-07T04:08:17;99865.88;;;7.57;100.00
17072;BME280;7731;50.720;6.912;2023-04-07T04:10:47;99864.97;;;7.58;100.00
17072;BME280;7731;50.720;6.912;2023-04-07T04:13:25;99866.69;;;7.78;100.00
17072;BME280;7731;50.720;6.912;2023-04-07T04:15:55;99869.97;;;7.61;100.00
17072;BME280;7731;50.720;6.912;2023-04-07T04:18:30;99865.47;;;7.87;100.00
17072;BME280;7731;50.720;6.912;2023-04-07T04:21:00;99869.91;;;7.83;100.00
17072;BME280;7731;50.720;6.912;2023-04-07T04:23:30;99874.75;;;7.69;100.00
17072;BME280;7731;50.720;6.912;2023-04-07T04:26:00;99873.25;;;7.65;100.00
17072;BME280;7731;50.720;6.912;2023-04-07T04:28:31;99876.34;;;7.72;100.00
17072;BME280;7731;50.720;6.912;2023-04-07T04:31:02;99883.13;;;7.52;100.00
17072;BME280;7731;50.720;6.912;2023-04-07T04:33:38;99884.78;;;7.53;100.00
17072;BME280;7731;50.720;6.912;2023-04-07T04:36:08;99882.09;;;7.56;100.00
17072;BME280;7731;50.720;6.912;2023-04-07T04:38:38;99883.66;;;7.60;100.00
17072;BME280;7731;50.720;6.912;2023-04-07T04:41:11;99885.34;;;7.60;100.00
17072;BME280;7731;50.720;6.912;2023-04-07T04:43:41;99886.16;;;7.62;100.00
17072;BME280;7731;50.720;6.912;2023-04-07T04:46:14;99884.34;;;7.64;100.00
17072;BME280;7731;50.720;6.912;2023-04-07T04:48:47;99883.84;;;7.56;100.00
17072;BME280;7731;50.720;6.912;2023-04-07T04:51:19;99889.22;;;7.49;100.00
17072;BME280;7731;50.720;6.912;2023-04-07T04:53:49;99893.34;;;7.52;100.00
17072;BME280;7731;50.720;6.912;2023-04-07T04:56:21;99899.75;;;7.62;100.00
17072;BME280;7731;50.720;6.912;2023-04-07T04:58:52;99897.00;;;7.46;100.00
17072;BME280;7731;50.720;6.912;2023-04-07T05:01:22;99902.06;;;7.48;100.00
17072;BME280;7731;50.720;6.912;2023-04-07T05:03:55;99906.59;;;7.62;100.00
17072;BME280;7731;50.720;6.912;2023-04-07T05:06:26;99904.28;;;7.56;100.00
17072;BME280;7731;50.720;6.912;2023-04-07T05:08:57;99908.34;;;7.39;100.00
17072;BME280;7731;50.720;6.912;2023-04-07T05:11:27;99914.41;;;7.59;100.00
17072;BME280;7731;50.720;6.912;2023-04-07T05:13:57;99914.72;;;7.51;100.00
17072;BME280;7731;50.720;6.912;2023-04-07T05:16:27;99911.47;;;7.68;100.00
17072;BME280;7731;50.720;6.912;2023-04-07T05:19:05;99909.66;;;7.49;100.00
17072;BME280;7731;50.720;6.912;2023-04-07T05:21:35;99910.34;;;7.53;100.00
17072;BME280;7731;50.720;6.912;2023-04-07T05:24:05;99906.06;;;7.54;100.00
17072;BME280;7731;50.720;6.912;2023-04-07T05:26:36;99907.91;;;7.50;100.00
17072;BME280;7731;50.720;6.912;2023-04-07T05:29:07;99910.72;;;7.44;100.00
17072;BME280;7731;50.720;6.912;2023-04-07T05:31:37;99911.41;;;7.47;100.00
17072;BME280;7731;50.720;6.912;2023-04-07T05:34:10;99909.00;;;7.44;100.00
17072;BME280;7731;50.720;6.912;2023-04-07T05:36:40;99915.25;;;7.15;100.00
17072;BME280;7731;50.720;6.912;2023-04-07T05:39:11;99916.78;;;7.41;100.00
17072;BME280;7731;50.720;6.912;2023-04-07T05:41:41;99922.13;;;7.35;100.00
17072;BME280;7731;50.720;6.912;2023-04-07T05:44:11;99927.16;;;7.16;100.00
17072;BME280;7731;50.720;6.912;2023-04-07T05:46:41;99925.41;;;7.39;100.00
17072;BME280;7731;50.720;6.912;2023-04-07T05:49:17;99917.38;;;7.48;100.00
17072;BME280;7731;50.720;6.912;2023-04-07T05:51:47;99922.13;;;7.57;100.00
17072;BME280;7731;50.720;6.912;2023-04-07T05:54:18;99921.81;;;7.65;100.00
17072;BME280;7731;50.720;6.912;2023-04-07T05:56:48;99929.53;;;7.63;100.00
17072;BME280;7731;50.720;6.912;2023-04-07T05:59:18;99930.09;;;7.49;100.00
17072;BME280;7731;50.720;6.912;2023-04-07T06:01:48;99937.22;;;7.41;100.00
17072;BME280;7731;50.720;6.912;2023-04-07T06:04:21;99932.03;;;7.22;100.00
17072;BME280;7731;50.720;6.912;2023-04-07T06:06:52;99936.03;;;7.50;100.00
17072;BME280;7731;50.720;6.912;2023-04-07T06:09:23;99943.13;;;7.43;100.00
17072;BME280;7731;50.720;6.912;2023-04-07T06:11:56;99937.78;;;7.70;100.00
17072;BME280;7731;50.720;6.912;2023-04-07T06:14:28;99946.50;;;7.44;100.00
17072;BME280;7731;50.720;6.912;2023-04-07T06:17:00;99942.81;;;7.51;100.00
17072;BME280;7731;50.720;6.912;2023-04-07T06:19:33;99949.81;;;7.46;100.00
17072;BME280;7731;50.720;6.912;2023-04-07T06:22:03;99943.66;;;7.72;100.00
17072;BME280;7731;50.720;6.912;2023-04-07T06:24:33;99952.03;;;7.33;100.00
17072;BME280;7731;50.720;6.912;2023-04-07T06:27:05;99958.44;;;7.21;100.00
17072;BME280;7731;50.720;6.912;2023-04-07T06:29:35;99960.84;;;7.48;100.00
17072;BME280;7731;50.720;6.912;2023-04-07T06:32:07;99964.34;;;7.45;100.00
17072;BME280;7731;50.720;6.912;2023-04-07T06:34:41;99956.97;;;7.38;100.00
17072;BME280;7731;50.720;6.912;2023-04-07T06:37:11;99953.47;;;7.18;100.00
17072;BME280;7731;50.720;6.912;2023-04-07T06:39:43;99959.81;;;7.52;100.00
17072;BME280;7731;50.720;6.912;2023-04-07T06:42:14;99965.72;;;7.54;100.00
17072;BME280;7731;50.720;6.912;2023-04-07T06:44:44;99971.94;;;7.47;100.00
17072;BME280;7731;50.720;6.912;2023-04-07T06:47:15;99971.13;;;7.46;100.00
17072;BME280;7731;50.720;6.912;2023-04-07T06:49:48;99968.97;;;7.36;100.00
17072;BME280;7731;50.720;6.912;2023-04-07T06:52:18;99976.69;;;7.56;100.00
17072;BME280;7731;50.720;6.912;2023-04-07T06:54:48;99972.66;;;7.50;100.00
17072;BME280;7731;50.720;6.912;2023-04-07T06:57:18;99981.56;;;7.62;100.00
17072;BME280;7731;50.720;6.912;2023-04-07T06:59:49;99982.63;;;7.57;100.00
17072;BME280;7731;50.720;6.912;2023-04-07T07:02:19;99985.25;;;7.55;100.00
17072;BME280;7731;50.720;6.912;2023-04-07T07:04:52;99984.09;;;7.42;100.00
17072;BME280;7731;50.720;6.912;2023-04-07T07:07:22;99987.66;;;7.38;100.00
17072;BME280;7731;50.720;6.912;2023-04-07T07:09:55;99994.94;;;7.47;100.00
17072;BME280;7731;50.720;6.912;2023-04-07T07:12:26;99987.94;;;7.30;100.00
17072;BME280;7731;50.720;6.912;2023-04-07T07:14:56;99997.75;;;7.41;100.00
17072;BME280;7731;50.720;6.912;2023-04-07T07:17:26;99988.09;;;7.47;100.00
17072;BME280;7731;50.720;6.912;2023-04-07T07:20:09;100002.84;;;7.41;100.00
17072;BME280;7731;50.720;6.912;2023-04-07T07:22:39;99997.59;;;7.22;100.00
17072;BME280;7731;50.720;6.912;2023-04-07T07:25:12;100001.06;;;7.43;100.00
17072;BME280;7731;50.720;6.912;2023-04-07T07:27:43;100005.03;;;7.28;100.00
17072;BME280;7731;50.720;6.912;2023-04-07T07:30:13;100007.69;;;7.25;100.00
17072;BME280;7731;50.720;6.912;2023-04-07T07:32:44;100009.03;;;7.35;100.00
17072;BME280;7731;50.720;6.912;2023-04-07T07:35:17;100013.13;;;7.39;100.00
17072;BME280;7731;50.720;6.912;2023-04-07T07:37:47;100010.28;;;7.47;100.00
17072;BME280;7731;50.720;6.912;2023-04-07T07:40:18;100014.41;;;7.51;100.00
17072;BME280;7731;50.720;6.912;2023-04-07T07:42:51;100017.81;;;7.72;100.00
17072;BME280;7731;50.720;6.912;2023-04-07T07:45:24;100018.91;;;7.66;100.00
17072;BME280;7731;50.720;6.912;2023-04-07T07:47:54;100016.91;;;7.53;100.00
17072;BME280;7731;50.720;6.912;2023-04-07T07:50:27;100021.38;;;7.90;100.00
17072;BME280;7731;50.720;6.912;2023-04-07T07:52:57;100026.25;;;7.96;100.00
17072;BME280;7731;50.720;6.912;2023-04-07T07:55:27;100025.06;;;7.83;100.00
17072;BME280;7731;50.720;6.912;2023-04-07T07:57:58;100025.88;;;8.05;100.00
17072;BME280;7731;50.720;6.912;2023-04-07T08:00:28;100028.38;;;8.07;100.00
17072;BME280;7731;50.720;6.912;2023-04-07T08:02:58;100029.69;;;7.95;100.00
17072;BME280;7731;50.720;6.912;2023-04-07T08:05:31;100031.28;;;7.77;100.00
17072;BME280;7731;50.720;6.912;2023-04-07T08:08:01;100035.19;;;7.86;100.00
17072;BME280;7731;50.720;6.912;2023-04-07T08:10:32;100030.78;;;7.67;100.00
17072;BME280;7731;50.720;6.912;2023-04-07T08:13:03;100044.97;;;7.54;100.00
17072;BME280;7731;50.720;6.912;2023-04-07T08:15:33;100047.47;;;7.98;100.00
17072;BME280;7731;50.720;6.912;2023-04-07T08:18:04;100048.66;;;8.12;100.00
17072;BME280;7731;50.720;6.912;2023-04-07T08:20:39;100045.88;;;7.96;100.00
17072;BME280;7731;50.720;6.912;2023-04-07T08:23:09;100049.34;;;7.95;100.00
17072;BME280;7731;50.720;6.912;2023-04-07T08:25:39;100058.63;;;7.97;100.00
17072;BME280;7731;50.720;6.912;2023-04-07T08:28:10;100062.44;;;7.87;100.00
17072;BME280;7731;50.720;6.912;2023-04-07T08:30:43;100056.13;;;7.96;100.00
17072;BME280;7731;50.720;6.912;2023-04-07T08:33:16;100064.09;;;7.88;100.00
17072;BME280;7731;50.720;6.912;2023-04-07T08:35:48;100069.34;;;7.85;100.00
17072;BME280;7731;50.720;6.912;2023-04-07T08:38:19;100063.03;;;7.72;100.00
17072;BME280;7731;50.720;6.912;2023-04-07T08:40:57;100065.75;;;7.89;100.00
17072;BME280;7731;50.720;6.912;2023-04-07T08:43:30;100066.81;;;8.05;100.00
17072;BME280;7731;50.720;6.912;2023-04-07T08:46:02;100063.97;;;7.91;100.00
17072;BME280;7731;50.720;6.912;2023-04-07T08:48:33;100068.03;;;7.75;100.00
17072;BME280;7731;50.720;6.912;2023-04-07T08:51:09;100069.69;;;7.76;100.00
17072;BME280;7731;50.720;6.912;2023-04-07T08:53:48;100073.97;;;7.97;100.00
17072;BME280;7731;50.720;6.912;2023-04-07T08:56:19;100070.38;;;8.01;100.00
17072;BME280;7731;50.720;6.912;2023-04-07T08:58:51;100082.31;;;7.80;100.00
17072;BME280;7731;50.720;6.912;2023-04-07T09:01:22;100080.72;;;7.98;100.00
17072;BME280;7731;50.720;6.912;2023-04-07T09:03:56;100078.34;;;8.16;100.00
17072;BME280;7731;50.720;6.912;2023-04-07T09:06:30;100075.91;;;8.13;100.00
17072;BME280;7731;50.720;6.912;2023-04-07T09:09:02;100080.13;;;8.14;100.00
17072;BME280;7731;50.720;6.912;2023-04-07T09:11:37;100080.09;;;7.93;100.00
17072;BME280;7731;50.720;6.912;2023-04-07T09:14:08;100089.91;;;8.47;100.00
17072;BME280;7731;50.720;6.912;2023-04-07T09:16:38;100087.59;;;8.40;100.00
17072;BME280;7731;50.720;6.912;2023-04-07T09:19:09;100085.44;;;8.52;100.00
17072;BME280;7731;50.720;6.912;2023-04-07T09:22:10;100090.44;;;8.55;100.00
17072;BME280;7731;50.720;6.912;2023-04-07T09:24:41;100089.47;;;8.35;100.00
17072;BME280;7731;50.720;6.912;2023-04-07T09:27:13;100090.44;;;8.55;100.00
17072;BME280;7731;50.720;6.912;2023-04-07T09:29:46;100086.22;;;8.93;100.00
17072;BME280;7731;50.720;6.912;2023-04-07T09:32:35;100085.75;;;8.44;100.00
17072;BME280;7731;50.720;6.912;2023-04-07T09:35:08;100085.06;;;8.82;100.00
17072;BME280;7731;50.720;6.912;2023-04-07T09:37:41;100080.09;;;9.17;100.00
17072;BME280;7731;50.720;6.912;2023-04-07T09:40:25;100082.50;;;9.01;100.00
17072;BME280;7731;50.720;6.912;2023-04-07T09:42:56;100080.88;;;9.19;100.00
17072;BME280;7731;50.720;6.912;2023-04-07T09:45:31;100085.38;;;8.74;100.00
17072;BME280;7731;50.720;6.912;2023-04-07T09:48:07;100079.94;;;8.61;100.00
17072;BME280;7731;50.720;6.912;2023-04-07T09:50:49;100083.16;;;8.66;100.00
17072;BME280;7731;50.720;6.912;2023-04-07T09:53:41;100080.63;;;9.04;100.00
17072;BME280;7731;50.720;6.912;2023-04-07T09:56:14;100087.22;;;8.91;100.00
17072;BME280;7731;50.720;6.912;2023-04-07T09:58:49;100087.03;;;8.75;100.00
17072;BME280;7731;50.720;6.912;2023-04-07T10:01:21;100087.97;;;9.12;100.00
17072;BME280;7731;50.720;6.912;2023-04-07T10:03:52;100091.47;;;8.71;100.00
17072;BME280;7731;50.720;6.912;2023-04-07T10:06:25;100088.06;;;8.50;100.00
17072;BME280;7731;50.720;6.912;2023-04-07T10:09:02;100094.31;;;8.43;100.00
17072;BME280;7731;50.720;6.912;2023-04-07T10:11:35;100100.56;;;8.36;100.00
17072;BME280;7731;50.720;6.912;2023-04-07T10:14:08;100101.78;;;8.27;100.00
17072;BME280;7731;50.720;6.912;2023-04-07T10:16:41;100098.56;;;8.44;100.00
17072;BME280;7731;50.720;6.912;2023-04-07T10:19:13;100105.53;;;8.61;100.00
17072;BME280;7731;50.720;6.912;2023-04-07T10:21:44;100098.53;;;8.85;100.00
17072;BME280;7731;50.720;6.912;2023-04-07T10:24:38;100099.44;;;8.84;100.00
17072;BME280;7731;50.720;6.912;2023-04-07T10:27:17;100099.44;;;8.84;100.00
17072;BME280;7731;50.720;6.912;2023-04-07T10:29:51;100105.53;;;8.82;100.00
17072;BME280;7731;50.720;6.912;2023-04-07T10:32:25;100107.97;;;8.85;100.00
17072;BME280;7731;50.720;6.912;2023-04-07T10:34:58;100113.94;;;9.04;100.00
17072;BME280;7731;50.720;6.912;2023-04-07T10:37:30;100106.50;;;9.19;100.00
17072;BME280;7731;50.720;6.912;2023-04-07T10:40:30;100112.13;;;8.87;100.00
17072;BME280;7731;50.720;6.912;2023-04-07T10:43:00;100110.13;;;8.94;100.00
17072;BME280;7731;50.720;6.912;2023-04-07T10:45:55;100110.84;;;9.17;100.00
17072;BME280;7731;50.720;6.912;2023-04-07T10:48:28;100108.47;;;9.33;100.00
17072;BME280;7731;50.720;6.912;2023-04-07T10:51:16;100113.31;;;9.39;100.00
17072;BME280;7731;50.720;6.912;2023-04-07T10:54:17;100119.88;;;9.25;100.00
17072;BME280;7731;50.720;6.912;2023-04-07T10:57:11;100121.91;;;8.98;100.00
17072;BME280;7731;50.720;6.912;2023-04-07T11:00:14;100110.53;;;9.62;100.00
17072;BME280;7731;50.720;6.912;2023-04-07T11:02:45;100118.56;;;9.55;100.00
17072;BME280;7731;50.720;6.912;2023-04-07T11:05:20;100119.31;;;9.38;100.00
17072;BME280;7731;50.720;6.912;2023-04-07T11:07:53;100108.59;;;9.48;100.00
17072;BME280;7731;50.720;6.912;2023-04-07T11:10:25;100119.19;;;9.41;100.00
17072;BME280;7731;50.720;6.912;2023-04-07T11:13:05;100115.09;;;9.56;100.00
17072;BME280;7731;50.720;6.912;2023-04-07T11:15:37;100115.66;;;9.43;100.00
17072;BME280;7731;50.720;6.912;2023-04-07T11:18:17;100122.00;;;9.92;100.00
17072;BME280;7731;50.720;6.912;2023-04-07T11:20:51;100122.16;;;9.70;100.00
17072;BME280;7731;50.720;6.912;2023-04-07T11:23:25;100127.69;;;10.52;100.00
17072;BME280;7731;50.720;6.912;2023-04-07T11:26:01;100123.16;;;10.40;100.00
17072;BME280;7731;50.720;6.912;2023-04-07T11:28:44;100127.53;;;10.01;100.00
17072;BME280;7731;50.720;6.912;2023-04-07T11:31:21;100130.91;;;9.85;100.00
17072;BME280;7731;50.720;6.912;2023-04-07T11:33:53;100135.91;;;9.50;100.00
17072;BME280;7731;50.720;6.912;2023-04-07T11:36:30;100153.22;;;9.44;100.00
17072;BME280;7731;50.720;6.912;2023-04-07T11:39:01;100153.63;;;9.35;100.00
17072;BME280;7731;50.720;6.912;2023-04-07T11:41:40;100142.13;;;9.44;100.00
17072;BME280;7731;50.720;6.912;2023-04-07T11:44:19;100143.75;;;9.46;100.00
17072;BME280;7731;50.720;6.912;2023-04-07T11:46:53;100144.50;;;9.48;100.00
17072;BME280;7731;50.720;6.912;2023-04-07T11:49:27;100143.22;;;9.76;100.00
17072;BME280;7731;50.720;6.912;2023-04-07T11:52:01;100149.63;;;9.87;100.00
17072;BME280;7731;50.720;6.912;2023-04-07T11:54:40;100151.41;;;9.65;100.00
17072;BME280;7731;50.720;6.912;2023-04-07T11:57:14;100154.34;;;9.77;100.00
17072;BME280;7731;50.720;6.912;2023-04-07T12:00:12;100155.81;;;10.19;100.00
17072;BME280;7731;50.720;6.912;2023-04-07T12:02:43;100147.22;;;10.20;100.00
17072;BME280;7731;50.720;6.912;2023-04-07T12:05:17;100150.03;;;10.50;100.00
17072;BME280;7731;50.720;6.912;2023-04-07T12:07:54;100151.25;;;10.43;100.00
17072;BME280;7731;50.720;6.912;2023-04-07T12:10:25;100153.28;;;11.22;100.00
17072;BME280;7731;50.720;6.912;2023-04-07T12:12:55;100152.19;;;11.60;100.00
17072;BME280;7731;50.720;6.912;2023-04-07T12:15:31;100159.69;;;10.98;100.00
17072;BME280;7731;50.720;6.912;2023-04-07T12:18:01;100160.38;;;11.01;100.00
17072;BME280;7731;50.720;6.912;2023-04-07T12:20:36;100170.25;;;10.22;100.00
17072;BME280;7731;50.720;6.912;2023-04-07T12:23:07;100168.81;;;9.97;100.00
17072;BME280;7731;50.720;6.912;2023-04-07T12:25:37;100179.84;;;9.61;100.00
17072;BME280;7731;50.720;6.912;2023-04-07T12:28:08;100180.38;;;9.48;100.00
17072;BME280;7731;50.720;6.912;2023-04-07T12:30:43;100190.81;;;9.04;100.00
17072;BME280;7731;50.720;6.912;2023-04-07T12:33:15;100183.81;;;9.28;100.00
17072;BME280;7731;50.720;6.912;2023-04-07T12:35:45;100185.13;;;9.58;100.00
17072;BME280;7731;50.720;6.912;2023-04-07T12:38:16;100184.28;;;9.57;100.00
17072;BME280;7731;50.720;6.912;2023-04-07T12:40:47;100181.38;;;10.03;100.00
17072;BME280;7731;50.720;6.912;2023-04-07T12:43:17;100177.16;;;10.19;100.00
17072;BME280;7731;50.720;6.912;2023-04-07T12:45:50;100180.31;;;10.07;100.00
17072;BME280;7731;50.720;6.912;2023-04-07T12:48:21;100191.03;;;9.60;100.00
17072;BME280;7731;50.720;6.912;2023-04-07T12:50:53;100190.72;;;9.47;100.00
17072;BME280;7731;50.720;6.912;2023-04-07T12:53:23;100187.06;;;9.72;100.00
17072;BME280;7731;50.720;6.912;2023-04-07T12:55:53;100196.78;;;9.65;100.00
17072;BME280;7731;50.720;6.912;2023-04-07T12:58:24;100195.75;;;9.69;100.00
17072;BME280;7731;50.720;6.912;2023-04-07T13:00:57;100196.03;;;9.63;100.00
17072;BME280;7731;50.720;6.912;2023-04-07T13:03:27;100195.91;;;10.22;100.00
17072;BME280;7731;50.720;6.912;2023-04-07T13:05:58;100191.34;;;10.09;100.00
17072;BME280;7731;50.720;6.912;2023-04-07T13:08:28;100188.50;;;9.96;100.00
17072;BME280;7731;50.720;6.912;2023-04-07T13:10:59;100185.66;;;10.76;100.00
17072;BME280;7731;50.720;6.912;2023-04-07T13:13:32;100190.03;;;10.56;100.00
17072;BME280;7731;50.720;6.912;2023-04-07T13:16:05;100196.88;;;11.08;100.00
17072;BME280;7731;50.720;6.912;2023-04-07T13:18:35;100189.66;;;10.99;100.00
17072;BME280;7731;50.720;6.912;2023-04-07T13:21:05;100188.50;;;11.38;100.00
17072;BME280;7731;50.720;6.912;2023-04-07T13:23:56;100183.50;;;11.19;100.00
17072;BME280;7731;50.720;6.912;2023-04-07T13:26:26;100191.47;;;10.79;100.00
17072;BME280;7731;50.720;6.912;2023-04-07T13:28:57;100192.97;;;11.01;100.00
17072;BME280;7731;50.720;6.912;2023-04-07T13:31:30;100194.16;;;11.11;100.00
17072;BME280;7731;50.720;6.912;2023-04-07T13:34:00;100192.22;;;10.99;100.00
17072;BME280;7731;50.720;6.912;2023-04-07T13:36:30;100193.69;;;11.54;100.00